createdAt,value
2018-12-21T00:01:36.600Z,86.10
2018-12-21T00:09:01.522Z,85.80
2018-12-21T00:11:29.851Z,86.10
2018-12-21T00:13:58.183Z,86.50
2018-12-21T00:16:26.466Z,87.20
2018-12-21T00:21:22.945Z,86.90
2018-12-21T00:23:51.310Z,87.10
2018-12-21T00:26:19.684Z,87.40
2018-12-21T00:28:48.210Z,87.10
2018-12-21T00:38:39.563Z,99.90
2018-12-21T00:48:56.968Z,88.40
2018-12-21T00:53:55.810Z,89.00
2018-12-21T00:56:24.241Z,88.80
2018-12-21T00:58:52.694Z,88.40
2018-12-21T01:01:21.381Z,87.80
2018-12-21T01:03:49.810Z,88.00
2018-12-21T01:06:18.236Z,87.90
2018-12-21T01:08:46.621Z,87.90
2018-12-21T01:11:14.970Z,87.90
2018-12-21T01:13:43.391Z,87.80
2018-12-21T01:16:12.856Z,87.70
2018-12-21T01:18:41.222Z,87.80
2018-12-21T01:21:11.021Z,87.90
2018-12-21T01:23:39.510Z,87.40
2018-12-21T01:26:07.902Z,87.70
2018-12-21T01:28:36.171Z,87.70
2018-12-21T01:31:04.565Z,87.70
2018-12-21T01:33:33.006Z,87.70
2018-12-21T01:36:01.367Z,87.50
2018-12-21T01:40:57.880Z,87.70
2018-12-21T01:43:26.187Z,97.40
2018-12-21T01:45:54.550Z,87.90
2018-12-21T01:48:22.937Z,87.60
2018-12-21T01:50:51.290Z,87.60
2018-12-21T01:53:19.661Z,88.00
2018-12-21T01:55:48.016Z,88.20
2018-12-21T01:58:16.412Z,88.30
2018-12-21T02:00:44.792Z,88.30
2018-12-21T02:03:13.066Z,88.40
2018-12-21T02:08:09.565Z,88.60
2018-12-21T02:10:37.998Z,89.30
2018-12-21T02:13:06.393Z,88.10
2018-12-21T02:15:34.822Z,88.10
2018-12-21T02:18:03.299Z,88.20
2018-12-21T02:20:31.691Z,88.20
2018-12-21T02:23:00.121Z,88.10
2018-12-21T02:25:28.560Z,88.30
2018-12-21T02:27:57.003Z,88.30
2018-12-21T02:30:25.323Z,88.30
2018-12-21T02:32:53.938Z,88.10
2018-12-21T02:35:22.519Z,89.10
2018-12-21T02:40:18.932Z,89.60
2018-12-21T02:42:47.436Z,89.30
2018-12-21T02:45:16.002Z,89.30
2018-12-21T02:47:44.290Z,88.80
2018-12-21T02:50:12.717Z,88.80
2018-12-21T02:52:41.041Z,88.30
2018-12-21T02:55:09.361Z,88.20
2018-12-21T02:57:37.667Z,87.90
2018-12-21T03:00:07.273Z,88.10
2018-12-21T03:02:35.683Z,88.10
2018-12-21T03:05:04.054Z,89.00
2018-12-21T03:07:32.416Z,88.20
2018-12-21T03:10:00.745Z,88.30
2018-12-21T03:12:29.134Z,88.30
2018-12-21T03:14:57.573Z,87.80
2018-12-21T03:17:26.115Z,87.70
2018-12-21T03:22:22.716Z,87.80
2018-12-21T03:24:51.241Z,87.90
2018-12-21T03:29:47.694Z,88.20
2018-12-21T03:32:16.105Z,98.40
2018-12-21T03:37:12.816Z,88.20
2018-12-21T03:39:42.251Z,87.70
2018-12-21T03:42:10.659Z,88.10
2018-12-21T03:44:39.011Z,89.70
2018-12-21T03:47:07.385Z,89.90
2018-12-21T03:49:35.712Z,90.10
2018-12-21T03:52:04.122Z,90.20
2018-12-21T03:57:00.740Z,90.80
2018-12-21T03:59:29.170Z,90.60
2018-12-21T04:01:57.672Z,90.20
2018-12-21T04:04:26.057Z,90.10
2018-12-21T04:06:54.421Z,90.10
2018-12-21T04:09:22.774Z,89.70
2018-12-21T04:12:54.280Z,89.90
2018-12-21T04:15:22.778Z,89.90
2018-12-21T04:17:51.300Z,90.10
2018-12-21T04:20:19.638Z,90.10
2018-12-21T04:25:16.129Z,90.00
2018-12-21T04:27:44.569Z,89.40
2018-12-21T04:30:12.938Z,89.20
2018-12-21T04:32:41.328Z,89.00
2018-12-21T04:35:09.785Z,88.90
2018-12-21T04:37:38.129Z,88.80
2018-12-21T04:40:07.994Z,88.80
2018-12-21T04:42:36.381Z,88.40
2018-12-21T04:45:05.036Z,88.30
2018-12-21T04:47:33.441Z,88.40
2018-12-21T04:50:01.833Z,88.50
2018-12-21T04:59:54.739Z,88.20
2018-12-21T05:02:23.051Z,87.70
2018-12-21T05:04:51.434Z,87.10
2018-12-21T05:07:19.888Z,86.60
2018-12-21T05:09:48.353Z,85.70
2018-12-21T05:12:16.706Z,85.70
2018-12-21T05:14:45.104Z,86.00
2018-12-21T05:17:13.512Z,85.80
2018-12-21T05:19:41.916Z,84.60
2018-12-21T05:22:10.219Z,82.30
2018-12-21T05:24:38.691Z,78.80
2018-12-21T05:27:07.036Z,76.90
2018-12-21T05:32:03.486Z,71.70
2018-12-21T05:34:31.894Z,70.40
2018-12-21T05:39:28.322Z,85.40
2018-12-21T05:44:25.120Z,91.20
2018-12-21T05:46:53.460Z,68.70
2018-12-21T05:49:21.893Z,70.70
2018-12-21T05:51:50.231Z,70.00
2018-12-21T05:54:18.556Z,69.90
2018-12-21T05:56:46.975Z,70.50
2018-12-21T05:59:15.374Z,71.70
2018-12-21T06:01:43.741Z,72.00
2018-12-21T06:04:12.082Z,71.50
2018-12-21T06:06:40.504Z,72.00
2018-12-21T06:09:09.093Z,72.70
2018-12-21T06:11:37.422Z,73.30
2018-12-21T06:14:05.849Z,74.10
2018-12-21T06:16:34.233Z,75.60
2018-12-21T06:19:02.589Z,76.10
2018-12-21T06:21:30.838Z,76.50
2018-12-21T06:26:27.335Z,76.70
2018-12-21T06:28:55.712Z,76.50
2018-12-21T06:31:24.174Z,76.70
2018-12-21T06:36:21.549Z,76.90
2018-12-21T06:43:46.122Z,77.90
2018-12-21T06:46:14.567Z,78.10
2018-12-21T06:48:42.882Z,77.80
2018-12-21T06:51:11.203Z,77.50
2018-12-21T06:53:39.478Z,77.30
2018-12-21T06:56:07.813Z,77.30
2018-12-21T07:01:04.303Z,77.90
2018-12-21T07:03:32.656Z,78.40
2018-12-21T07:06:01.031Z,78.70
2018-12-21T07:08:29.506Z,78.80
2018-12-21T07:10:57.998Z,78.90
2018-12-21T07:13:26.332Z,79.10
2018-12-21T07:15:54.746Z,79.80
2018-12-21T07:18:23.148Z,80.40
2018-12-21T07:20:51.576Z,78.80
2018-12-21T07:23:27.112Z,79.20
2018-12-21T07:28:18.415Z,79.00
2018-12-21T07:33:14.924Z,79.50
2018-12-21T07:35:43.468Z,79.70
2018-12-21T07:38:11.802Z,79.90
2018-12-21T07:40:40.372Z,80.00
2018-12-21T07:50:33.054Z,80.00
2018-12-21T07:53:01.474Z,79.90
2018-12-21T07:55:29.803Z,80.20
2018-12-21T07:57:58.716Z,80.40
2018-12-21T08:00:27.183Z,80.90
2018-12-21T08:02:55.516Z,81.70
2018-12-21T08:05:23.879Z,81.50
2018-12-21T08:07:52.198Z,81.80
2018-12-21T08:10:20.915Z,82.00
2018-12-21T08:12:49.349Z,81.90
2018-12-21T08:15:17.679Z,81.80
2018-12-21T08:17:46.145Z,82.00
2018-12-21T08:20:14.723Z,82.30
2018-12-21T08:22:43.111Z,82.10
2018-12-21T08:25:11.476Z,82.00
2018-12-21T08:27:39.817Z,81.70
2018-12-21T08:30:09.671Z,81.50
2018-12-21T08:32:38.256Z,81.80
2018-12-21T08:35:06.748Z,99.90
2018-12-21T08:37:35.092Z,81.80
2018-12-21T08:40:03.517Z,81.50
2018-12-21T08:42:31.939Z,88.00
2018-12-21T08:45:00.359Z,81.30
2018-12-21T08:49:56.950Z,81.70
2018-12-21T08:52:25.375Z,80.80
2018-12-21T08:54:53.881Z,80.70
2018-12-21T08:57:22.372Z,81.00
2018-12-21T09:02:20.934Z,80.20
2018-12-21T09:04:49.281Z,80.80
2018-12-21T09:07:17.691Z,81.40
2018-12-21T09:09:46.182Z,81.40
2018-12-21T09:12:14.806Z,81.40
2018-12-21T09:14:43.394Z,82.30
2018-12-21T09:17:11.928Z,81.40
2018-12-21T09:19:40.485Z,82.20
2018-12-21T09:22:09.092Z,82.30
2018-12-21T09:24:37.654Z,81.60
2018-12-21T09:27:06.334Z,80.00
2018-12-21T09:29:34.956Z,80.70
2018-12-21T09:32:05.244Z,79.20
2018-12-21T09:34:34.043Z,79.10
2018-12-21T09:37:02.593Z,78.10
2018-12-21T09:41:59.080Z,75.00
2018-12-21T09:49:23.900Z,67.60
2018-12-21T09:54:20.416Z,76.90
2018-12-21T09:56:48.861Z,78.70
2018-12-21T09:59:17.487Z,64.40
2018-12-21T10:01:45.882Z,65.00
2018-12-21T10:04:14.655Z,61.40
2018-12-21T10:06:43.060Z,59.40
2018-12-21T10:09:11.402Z,57.40
2018-12-21T10:11:39.713Z,59.50
2018-12-21T10:14:08.227Z,59.30
2018-12-21T10:16:36.539Z,59.70
2018-12-21T10:19:04.909Z,59.90
2018-12-21T10:21:33.262Z,61.50
2018-12-21T10:24:01.667Z,61.90
2018-12-21T10:28:58.145Z,63.00
2018-12-21T10:31:26.582Z,59.80
2018-12-21T10:33:54.913Z,60.80
2018-12-21T10:36:23.239Z,61.30
2018-12-21T10:38:51.672Z,63.00
2018-12-21T10:41:20.001Z,62.30
2018-12-21T10:43:48.289Z,79.80
2018-12-21T10:46:16.645Z,87.30
2018-12-21T10:48:45.143Z,64.30
2018-12-21T10:51:13.507Z,63.70
2018-12-21T10:53:41.855Z,63.80
2018-12-21T10:58:38.335Z,59.90
2018-12-21T11:01:06.798Z,60.70
2018-12-21T11:03:35.099Z,63.90
2018-12-21T11:06:03.533Z,64.10
2018-12-21T11:08:31.898Z,65.40
2018-12-21T11:11:00.341Z,66.90
2018-12-21T11:13:28.783Z,67.70
2018-12-21T11:15:57.245Z,67.50
2018-12-21T11:18:28.666Z,67.50
2018-12-21T11:20:56.993Z,62.70
2018-12-21T11:23:25.394Z,62.70
2018-12-21T11:25:53.837Z,59.00
2018-12-21T11:28:25.456Z,61.50
2018-12-21T11:30:52.678Z,58.10
2018-12-21T11:33:21.085Z,60.10
2018-12-21T11:35:49.403Z,60.40
2018-12-21T11:38:17.802Z,92.10
2018-12-21T11:40:46.200Z,59.40
2018-12-21T11:43:14.548Z,91.90
2018-12-21T11:45:42.906Z,59.40
2018-12-21T11:50:39.325Z,57.80
2018-12-21T11:53:07.725Z,57.80
2018-12-21T11:55:36.146Z,58.60
2018-12-21T11:58:04.477Z,52.20
2018-12-21T12:00:32.808Z,51.40
2018-12-21T12:03:01.134Z,50.60
2018-12-21T12:05:29.448Z,51.50
2018-12-21T12:07:57.871Z,51.20
2018-12-21T12:10:26.223Z,49.30
2018-12-21T12:12:54.478Z,49.50
2018-12-21T12:15:22.848Z,48.50
2018-12-21T12:17:51.209Z,49.10
2018-12-21T12:20:19.519Z,49.00
2018-12-21T12:22:47.882Z,49.80
2018-12-21T12:25:16.270Z,52.30
2018-12-21T12:27:44.696Z,52.00
2018-12-21T12:30:13.055Z,53.50
2018-12-21T12:32:41.521Z,54.00
2018-12-21T12:35:09.799Z,55.50
2018-12-21T12:37:38.119Z,55.60
2018-12-21T12:40:07.931Z,56.20
2018-12-21T12:50:00.774Z,56.00
2018-12-21T12:52:29.080Z,57.60
2018-12-21T12:55:02.535Z,57.80
2018-12-21T12:57:27.733Z,56.70
2018-12-21T12:59:56.185Z,57.30
2018-12-21T13:02:24.522Z,57.70
2018-12-21T13:04:52.860Z,58.40
2018-12-21T13:07:21.217Z,59.00
2018-12-21T13:09:49.504Z,58.70
2018-12-21T13:12:17.906Z,59.50
2018-12-21T13:14:46.178Z,58.10
2018-12-21T13:17:14.519Z,58.30
2018-12-21T13:19:42.775Z,58.50
2018-12-21T13:22:11.116Z,58.70
2018-12-21T13:24:39.526Z,58.30
2018-12-21T13:27:07.939Z,62.00
2018-12-21T13:29:36.213Z,64.70
2018-12-21T13:32:04.575Z,63.40
2018-12-21T13:34:32.912Z,65.50
2018-12-21T13:37:01.178Z,69.30
2018-12-21T13:39:29.449Z,89.50
2018-12-21T13:41:57.788Z,70.60
2018-12-21T13:46:54.232Z,71.40
2018-12-21T13:51:50.615Z,71.60
2018-12-21T13:54:18.955Z,74.40
2018-12-21T13:56:47.354Z,74.70
2018-12-21T13:59:15.661Z,77.80
2018-12-21T14:01:44.220Z,77.40
2018-12-21T14:04:12.578Z,81.40
2018-12-21T14:06:40.893Z,81.40
2018-12-21T14:09:09.179Z,83.20
2018-12-21T14:11:37.592Z,82.30
2018-12-21T14:14:06.938Z,85.10
2018-12-21T14:16:35.536Z,86.10
2018-12-21T14:19:03.793Z,86.70
2018-12-21T14:21:32.098Z,86.40
2018-12-21T14:24:00.459Z,86.30
2018-12-21T14:26:28.841Z,87.60
2018-12-21T14:31:25.178Z,88.40
2018-12-21T14:33:53.518Z,93.10
2018-12-21T14:36:21.882Z,88.40
2018-12-21T14:41:18.266Z,99.00
2018-12-21T14:46:14.748Z,90.60
2018-12-21T14:48:43.148Z,91.30
2018-12-21T14:51:11.540Z,90.90
2018-12-21T14:53:39.805Z,91.20
2018-12-21T14:56:08.139Z,91.50
2018-12-21T14:58:36.393Z,91.90
2018-12-21T15:01:04.666Z,92.20
2018-12-21T15:03:33.198Z,92.90
2018-12-21T15:06:01.538Z,93.20
2018-12-21T15:08:29.876Z,94.00
2018-12-21T15:10:58.237Z,94.30
2018-12-21T15:13:26.630Z,94.70
2018-12-21T15:15:55.166Z,95.70
2018-12-21T15:18:23.523Z,95.90
2018-12-21T15:20:51.801Z,95.90
2018-12-21T15:23:20.158Z,95.40
2018-12-21T15:25:48.497Z,95.20
2018-12-21T15:28:16.834Z,95.00
2018-12-21T15:33:13.478Z,95.30
2018-12-21T15:43:06.143Z,96.30
2018-12-21T15:45:34.470Z,96.70
2018-12-21T15:48:02.851Z,96.90
2018-12-21T15:50:31.336Z,97.00
2018-12-21T15:52:59.820Z,96.90
2018-12-21T15:55:28.262Z,96.40
2018-12-21T15:57:56.576Z,96.20
2018-12-21T16:00:24.827Z,96.50
2018-12-21T16:02:55.551Z,96.30
2018-12-21T16:05:23.865Z,95.90
2018-12-21T16:07:52.184Z,95.20
2018-12-21T16:10:20.379Z,95.60
2018-12-21T16:12:48.730Z,95.30
2018-12-21T16:15:17.050Z,95.30
2018-12-21T16:17:46.651Z,95.60
2018-12-21T16:20:15.599Z,95.40
2018-12-21T16:22:43.917Z,95.70
2018-12-21T16:25:12.283Z,95.80
2018-12-21T16:27:40.630Z,95.80
2018-12-21T16:30:11.282Z,95.60
2018-12-21T16:32:39.755Z,95.80
2018-12-21T16:35:08.142Z,96.10
2018-12-21T16:45:01.156Z,97.20
2018-12-21T16:47:29.789Z,97.10
2018-12-21T16:49:58.188Z,97.30
2018-12-21T16:52:26.506Z,97.50
2018-12-21T16:54:55.089Z,96.90
2018-12-21T16:57:23.706Z,96.70
2018-12-21T16:59:52.344Z,96.60
2018-12-21T17:02:20.702Z,96.40
2018-12-21T17:04:49.027Z,96.70
2018-12-21T17:07:17.442Z,96.70
2018-12-21T17:09:45.969Z,96.10
2018-12-21T17:12:14.357Z,95.50
2018-12-21T17:14:42.730Z,95.10
2018-12-21T17:17:11.264Z,93.80
2018-12-21T17:19:39.715Z,94.60
2018-12-21T17:22:08.087Z,94.20
2018-12-21T17:24:36.467Z,94.10
2018-12-21T17:27:04.947Z,92.90
2018-12-21T17:29:33.488Z,98.10
2018-12-21T17:32:02.180Z,93.10
2018-12-21T17:41:54.947Z,92.70
2018-12-21T17:46:51.369Z,92.10
2018-12-21T17:49:19.737Z,91.70
2018-12-21T17:51:48.432Z,91.40
2018-12-21T17:54:17.229Z,91.00
2018-12-21T17:56:45.584Z,91.00
2018-12-21T17:59:14.479Z,90.80
2018-12-21T18:01:43.988Z,90.40
2018-12-21T18:04:43.546Z,90.50
2018-12-21T18:07:11.897Z,90.80
2018-12-21T18:09:40.321Z,90.70
2018-12-21T18:12:09.374Z,90.60
2018-12-21T18:17:06.455Z,89.20
2018-12-21T18:19:34.863Z,89.00
2018-12-21T18:22:10.900Z,89.20
2018-12-21T18:24:39.263Z,89.30
2018-12-21T18:27:07.593Z,89.20
2018-12-21T18:29:37.776Z,89.40
2018-12-21T18:32:18.312Z,90.00
2018-12-21T18:34:46.922Z,90.10
2018-12-21T18:37:15.312Z,90.20
2018-12-21T18:39:43.663Z,90.30
2018-12-21T18:42:11.946Z,97.60
2018-12-21T18:44:40.511Z,90.70
2018-12-21T18:47:08.874Z,91.00
2018-12-21T18:57:05.339Z,90.90
2018-12-21T18:59:33.647Z,90.60
2018-12-21T19:02:01.956Z,90.50
2018-12-21T19:04:30.164Z,90.50
2018-12-21T19:06:58.491Z,90.10
2018-12-21T19:09:26.998Z,90.00
2018-12-21T19:14:23.522Z,90.10
2018-12-21T19:16:51.926Z,90.00
2018-12-21T19:19:20.302Z,90.10
2018-12-21T19:21:48.636Z,90.40
2018-12-21T19:24:17.424Z,90.80
2018-12-21T19:26:45.814Z,90.60
2018-12-21T19:29:14.112Z,90.80
2018-12-21T19:31:42.542Z,90.80
2018-12-21T19:34:10.868Z,90.60
2018-12-21T19:36:39.283Z,90.60
2018-12-21T19:41:37.261Z,90.50
2018-12-21T19:44:05.623Z,90.50
2018-12-21T19:57:30.921Z,90.30
2018-12-21T19:59:59.202Z,99.90
2018-12-21T20:02:27.535Z,98.80
2018-12-21T20:04:56.123Z,90.70
2018-12-21T20:09:52.624Z,97.70
2018-12-21T20:12:20.996Z,97.90
2018-12-21T20:17:17.663Z,90.10
2018-12-21T20:19:46.033Z,89.60
2018-12-21T20:22:14.361Z,89.30
2018-12-21T20:24:43.015Z,88.60
2018-12-21T20:27:14.055Z,87.30
2018-12-21T20:29:42.984Z,87.30
2018-12-21T20:32:12.534Z,86.20
2018-12-21T20:34:40.979Z,85.50
2018-12-21T20:37:09.354Z,85.00
2018-12-21T20:39:40.923Z,84.30
2018-12-21T20:42:09.379Z,84.30
2018-12-21T20:44:37.734Z,84.40
2018-12-21T20:47:06.169Z,83.40
2018-12-21T20:49:34.534Z,84.10
2018-12-21T20:52:02.927Z,84.90
2018-12-21T20:54:31.225Z,83.50
2018-12-21T20:57:01.102Z,84.20
2018-12-21T20:59:30.663Z,83.20
2018-12-21T21:02:00.137Z,83.70
2018-12-21T21:04:28.889Z,83.80
2018-12-21T21:06:57.472Z,85.50
2018-12-21T21:09:25.751Z,82.50
2018-12-21T21:11:54.026Z,83.10
2018-12-21T21:16:50.943Z,89.50
2018-12-21T21:19:19.175Z,82.50
2018-12-21T21:21:47.556Z,82.60
2018-12-21T21:24:15.893Z,82.20
2018-12-21T21:26:44.329Z,82.50
2018-12-21T21:29:12.866Z,82.00
2018-12-21T21:31:44.558Z,82.10
2018-12-21T21:34:12.880Z,82.30
2018-12-21T21:36:41.154Z,83.10
2018-12-21T21:39:09.419Z,83.40
2018-12-21T21:41:37.681Z,82.60
2018-12-21T21:44:06.394Z,83.50
2018-12-21T21:46:34.723Z,83.80
2018-12-21T21:49:03.982Z,84.60
2018-12-21T21:51:32.386Z,85.20
2018-12-21T21:54:00.589Z,84.20
2018-12-21T21:56:28.872Z,84.30
2018-12-21T21:58:57.136Z,85.00
2018-12-21T22:01:25.344Z,83.60
2018-12-21T22:03:54.589Z,82.70
2018-12-21T22:06:22.838Z,83.30
2018-12-21T22:08:51.055Z,83.50
2018-12-21T22:11:19.460Z,83.30
2018-12-21T22:13:47.707Z,83.00
2018-12-21T22:21:11.895Z,82.90
2018-12-21T22:23:40.109Z,82.60
2018-12-21T22:26:08.324Z,82.30
2018-12-21T22:28:36.604Z,81.90
2018-12-21T22:31:04.959Z,82.80
2018-12-21T22:33:34.297Z,83.70
2018-12-21T22:36:02.591Z,84.60
2018-12-21T22:38:30.837Z,85.60
2018-12-21T22:40:59.161Z,86.10
2018-12-21T22:43:27.358Z,86.00
2018-12-21T22:45:55.685Z,86.40
2018-12-21T22:48:24.083Z,86.20
2018-12-21T22:50:52.344Z,85.80
2018-12-21T22:53:20.710Z,92.90
2018-12-21T22:58:17.053Z,85.90
2018-12-21T23:00:45.375Z,86.90
2018-12-21T23:03:13.563Z,86.80
2018-12-21T23:05:41.777Z,87.30
2018-12-21T23:08:10.000Z,87.30
2018-12-21T23:10:38.235Z,87.40
2018-12-21T23:13:06.436Z,87.40
2018-12-21T23:15:34.671Z,87.00
2018-12-21T23:18:02.904Z,86.70
2018-12-21T23:20:31.083Z,86.50
2018-12-21T23:23:00.348Z,86.50
2018-12-21T23:25:28.547Z,86.80
2018-12-21T23:28:04.786Z,86.70
2018-12-21T23:30:27.010Z,86.70
2018-12-21T23:32:55.207Z,86.10
2018-12-21T23:35:23.396Z,86.80
2018-12-21T23:37:51.597Z,86.80
2018-12-21T23:40:19.783Z,86.80
2018-12-21T23:42:48.078Z,87.70
2018-12-21T23:45:16.351Z,93.80
2018-12-21T23:47:44.621Z,91.70
2018-12-21T23:50:12.922Z,86.50
2018-12-21T23:52:41.271Z,86.60
